VYYY Airport Information

Runway Information
Runway 03 Length 11200 ft width 200 ft
Elevation 109 ft Threshold 0 ft Heading 33
Runway 21 Length 11200 ft Width 200 ft
Elevation 65 ft Threshold 275 ft Heading 213
Airport Frequencies
Type APP Name MINGALADON Frequency 119.7 MHZ
Type ATIS Name ATIS Frequency 128.4 MHZ
Type GND Name MINGALADON Frequency 121.9 MHZ
Type TWR Name MINGALADON Frequency 118.1 MHZ
Airport Navaids
Type NDB Name Mingaladon Frequency 397 KHZ
Type NDB Name Yangon Frequency 265 KHZ
Airport Weather Information & NOTAM
ADDS - METARS form results

(1938 UTC 18 January 2020)
Data provider http://aviationweather.gov/metar/data/
 
METAR text: VYYY 181930Z 26004KT 6000 NSC 22/21 Q1011 NOSIG
Conditions at: VYYY (YANGON INTL MYAN, VN) observed 1930 UTC 18 January 2020
Temperature: 22.0°C (72°F)
Dewpoint: 21.0°C (70°F) [RH = 94%]
Pressure (altimeter): 29.85 inches Hg (1011.0 mb)
Winds: from the W (260 degrees) at 5 MPH (4 knots; 2.1 m/s)
Visibility: 4 miles ( 6 km)
Ceiling: at least 12,000 feet AGL
Clouds: sky clear below 12,000 feet AGL
Weather: no significant weather observed at this time

METAR text: VYYY 181900Z 29004KT 6000 NSC 23/18 Q1012 NOSIG
Conditions at: VYYY (YANGON INTL MYAN, VN) observed 1900 UTC 18 January 2020
Temperature: 23.0°C (73°F)
Dewpoint: 18.0°C (64°F) [RH = 73%]
Pressure (altimeter): 29.88 inches Hg (1012.0 mb)
Winds: from the WNW (290 degrees) at 5 MPH (4 knots; 2.1 m/s)
Visibility: 4 miles ( 6 km)
Ceiling: at least 12,000 feet AGL
Clouds: sky clear below 12,000 feet AGL
Weather: no significant weather observed at this time

Forecast for: VYYY (YANGON INTL MYAN, VN)
Text: TAF VYYY 181700Z 1818/1918 31006KT 8000 NSC
Forecast period: 1800 UTC 18 January 2020 to 1800 UTC 19 January 2020
Forecast type: FROM: standard forecast or significant change
Winds: from the NW (310 degrees) at 7 MPH (6 knots; 3.1 m/s)
Visibility: 5 miles (8 km)
Ceiling: unknown
Clouds: missing
Weather: no significant weather forecast for this period
Text: TEMPO 1822/1902 36005KT 3000 BR
Forecast period: 2200 UTC 18 January 2020 to 0200 UTC 19 January 2020
Forecast type: TEMPORARY: The following changes expected for less than half the time period
Winds: from the N (360 degrees) at 6 MPH (5 knots; 2.6 m/s)
Visibility: 1.86 miles (2.99 km)
Ceiling: unknown
Clouds: missing
Weather: BR  (mist)
Text: TEMPO 1902/1906 02006KT 6000 HZ
Forecast period: 0200 to 0600 UTC 19 January 2020
Forecast type: TEMPORARY: The following changes expected for less than half the time period
Winds: from the NNE (20 degrees) at 7 MPH (6 knots; 3.1 m/s)
Visibility: 4 miles (6 km)
Ceiling: unknown
Clouds: missing
Weather: HZ  (haze)
Text: TEMPO 1910/1914 6000 HZ
Forecast period: 1000 to 1400 UTC 19 January 2020
Forecast type: TEMPORARY: The following changes expected for less than half the time period
Visibility: 4 miles (6 km)
Ceiling: unknown
Clouds: missing
Weather: HZ  (haze)